createdAt,value
2022-09-18T00:00:28.549Z,89
2022-09-18T00:05:31.797Z,89
2022-09-18T00:08:55.202Z,89
2022-09-18T00:18:13.961Z,88
2022-09-18T00:26:11.994Z,88
2022-09-18T00:28:11.879Z,88
2022-09-18T00:37:07.241Z,88
2022-09-18T00:39:08.843Z,88
2022-09-18T00:52:28.693Z,88
2022-09-18T00:54:34.830Z,88
2022-09-18T01:01:41.699Z,88
2022-09-18T01:03:40.237Z,88
2022-09-18T01:05:39.053Z,88
2022-09-18T01:12:59.291Z,89
2022-09-18T01:17:03.664Z,88
2022-09-18T01:22:14.581Z,88
2022-09-18T01:29:13.687Z,88
2022-09-18T01:31:03.896Z,88
2022-09-18T01:33:06.326Z,88
2022-09-18T01:39:40.157Z,88
2022-09-18T01:45:18.170Z,88
2022-09-18T01:47:21.966Z,88
2022-09-18T01:52:26.494Z,88
2022-09-18T01:55:58.971Z,88
2022-09-18T01:57:53.381Z,88
2022-09-18T02:02:53.599Z,89
2022-09-18T02:04:52.856Z,88
2022-09-18T02:07:56.999Z,89
2022-09-18T02:12:09.226Z,89
2022-09-18T02:17:08.227Z,89
2022-09-18T02:19:41.362Z,89
2022-09-18T02:32:09.021Z,89
2022-09-18T02:35:06.104Z,88
2022-09-18T02:38:05.812Z,88
2022-09-18T02:45:24.013Z,88
2022-09-18T02:59:08.791Z,88
2022-09-18T03:01:06.271Z,88
2022-09-18T03:03:12.972Z,88
2022-09-18T03:05:16.697Z,88
2022-09-18T03:10:24.045Z,88
2022-09-18T03:14:10.992Z,88
2022-09-18T03:18:07.574Z,88
2022-09-18T03:21:16.023Z,88
2022-09-18T03:24:12.239Z,88
2022-09-18T03:35:32.658Z,88
2022-09-18T03:37:34.850Z,88
2022-09-18T03:39:32.013Z,88
2022-09-18T03:41:33.691Z,88
2022-09-18T03:43:31.509Z,88
2022-09-18T03:45:35.456Z,88
2022-09-18T03:49:32.114Z,88
2022-09-18T03:51:34.954Z,88
2022-09-18T03:53:34.151Z,88
2022-09-18T03:55:32.254Z,88
2022-09-18T03:57:31.082Z,88
2022-09-18T03:59:33.771Z,88
2022-09-18T04:01:33.969Z,88
2022-09-18T04:03:32.145Z,88
2022-09-18T04:05:32.267Z,88
2022-09-18T04:07:33.915Z,88
2022-09-18T04:09:34.909Z,88
2022-09-18T04:11:33.335Z,88
2022-09-18T04:13:32.168Z,87
2022-09-18T04:15:30.920Z,87
2022-09-18T04:17:32.422Z,87
2022-09-18T04:19:35.248Z,87
2022-09-18T04:21:33.345Z,87
2022-09-18T04:23:38.418Z,87
2022-09-18T04:25:33.806Z,86
2022-09-18T04:27:31.783Z,86
2022-09-18T04:29:32.431Z,86
2022-09-18T04:31:32.911Z,86
2022-09-18T04:33:35.131Z,86
2022-09-18T04:35:32.312Z,86
2022-09-18T04:37:35.168Z,86
2022-09-18T04:39:35.328Z,85
2022-09-18T04:41:34.602Z,85
2022-09-18T04:43:35.328Z,85
2022-09-18T04:47:30.755Z,85
2022-09-18T04:49:33.287Z,85
2022-09-18T04:51:35.159Z,85
2022-09-18T04:53:31.368Z,85
2022-09-18T04:55:35.425Z,85
2022-09-18T04:57:35.082Z,85
2022-09-18T04:59:33.442Z,85
2022-09-18T05:01:33.402Z,85
2022-09-18T05:03:32.914Z,85
2022-09-18T05:05:31.792Z,85
2022-09-18T05:07:32.258Z,85
2022-09-18T05:09:35.174Z,85
2022-09-18T05:11:32.258Z,86
2022-09-18T05:13:32.556Z,86
2022-09-18T05:15:35.030Z,86
2022-09-18T05:17:34.719Z,86
2022-09-18T05:19:34.512Z,87
2022-09-18T05:21:30.845Z,87
2022-09-18T05:23:33.904Z,87
2022-09-18T05:25:33.003Z,87
2022-09-18T05:27:33.299Z,87
2022-09-18T05:29:34.391Z,88
2022-09-18T05:31:33.895Z,87
2022-09-18T05:33:35.135Z,88
2022-09-18T05:35:33.938Z,88
2022-09-18T05:37:32.292Z,88
2022-09-18T05:39:32.216Z,88
2022-09-18T05:41:33.723Z,88
2022-09-18T05:43:32.201Z,88
2022-09-18T05:45:32.276Z,88
2022-09-18T05:49:32.399Z,87
2022-09-18T05:51:32.738Z,88
2022-09-18T05:53:32.209Z,87
2022-09-18T05:55:32.646Z,87
2022-09-18T05:57:32.241Z,88
2022-09-18T05:59:30.722Z,88
2022-09-18T06:01:38.624Z,88
2022-09-18T06:03:35.037Z,88
2022-09-18T06:05:32.254Z,88
2022-09-18T06:07:34.340Z,88
2022-09-18T06:09:29.364Z,88
2022-09-18T06:11:35.138Z,88
2022-09-18T06:13:33.743Z,88
2022-09-18T06:15:35.134Z,88
2022-09-18T06:17:32.283Z,88
2022-09-18T06:19:35.358Z,88
2022-09-18T06:21:30.751Z,88
2022-09-18T06:23:32.731Z,88
2022-09-18T06:25:32.558Z,88
2022-09-18T06:27:32.303Z,88
2022-09-18T06:29:32.583Z,88
2022-09-18T06:31:32.403Z,88
2022-09-18T06:33:34.379Z,88
2022-09-18T06:35:33.408Z,88
2022-09-18T06:37:33.587Z,88
2022-09-18T06:39:30.694Z,88
2022-09-18T06:41:34.229Z,89
2022-09-18T06:43:35.261Z,89
2022-09-18T06:45:35.080Z,89
2022-09-18T06:47:32.122Z,89
2022-09-18T06:49:33.023Z,89
2022-09-18T06:51:32.224Z,89
2022-09-18T06:53:32.293Z,89
2022-09-18T06:55:34.448Z,89
2022-09-18T06:59:33.550Z,89
2022-09-18T07:01:33.555Z,89
2022-09-18T07:03:32.350Z,89
2022-09-18T07:05:33.874Z,89
2022-09-18T07:07:33.065Z,89
2022-09-18T07:09:33.983Z,89
2022-09-18T07:13:35.219Z,89
2022-09-18T07:15:34.875Z,89
2022-09-18T07:17:32.285Z,89
2022-09-18T07:19:31.647Z,89
2022-09-18T07:21:32.274Z,89
2022-09-18T07:23:32.028Z,89
2022-09-18T07:25:35.285Z,89
2022-09-18T07:27:34.828Z,89
2022-09-18T07:29:33.739Z,89
2022-09-18T07:31:32.875Z,89
2022-09-18T07:37:33.997Z,88
2022-09-18T07:39:31.194Z,88
2022-09-18T07:41:32.398Z,88
2022-09-18T07:43:32.375Z,88
2022-09-18T07:45:35.124Z,88
2022-09-18T07:47:32.288Z,88
2022-09-18T07:51:31.106Z,88
2022-09-18T07:55:34.773Z,88
2022-09-18T07:57:35.051Z,88
2022-09-18T07:59:34.941Z,88
2022-09-18T08:01:30.918Z,88
2022-09-18T08:03:32.044Z,88
2022-09-18T08:05:33.417Z,88
2022-09-18T08:07:35.425Z,88
2022-09-18T08:09:35.444Z,88
2022-09-18T08:11:33.603Z,88
2022-09-18T08:15:32.257Z,88
2022-09-18T08:17:32.072Z,88
2022-09-18T08:19:33.830Z,88
2022-09-18T08:21:33.955Z,88
2022-09-18T08:23:30.842Z,88
2022-09-18T08:25:35.455Z,88
2022-09-18T08:27:31.824Z,88
2022-09-18T08:29:32.492Z,87
2022-09-18T08:31:32.216Z,87
2022-09-18T08:33:32.252Z,87
2022-09-18T08:35:32.579Z,87
2022-09-18T08:37:32.236Z,87
2022-09-18T08:39:35.467Z,87
2022-09-18T08:41:33.932Z,86
2022-09-18T08:43:34.279Z,86
2022-09-18T08:45:33.403Z,86
2022-09-18T08:47:35.438Z,87
2022-09-18T08:49:35.841Z,86
2022-09-18T08:51:34.599Z,86
2022-09-18T08:53:33.819Z,86
2022-09-18T08:55:34.384Z,87
2022-09-18T08:57:33.833Z,87
2022-09-18T08:59:31.112Z,87
2022-09-18T09:01:32.291Z,87
2022-09-18T09:03:34.329Z,87
2022-09-18T09:05:33.384Z,87
2022-09-18T09:07:33.216Z,87
2022-09-18T09:09:32.333Z,87
2022-09-18T09:11:32.474Z,87
2022-09-18T09:13:33.870Z,87
2022-09-18T09:15:33.797Z,87
2022-09-18T09:17:31.161Z,87
2022-09-18T09:19:32.981Z,87
2022-09-18T09:21:35.206Z,86
2022-09-18T09:23:35.366Z,86
2022-09-18T09:25:32.366Z,86
2022-09-18T09:27:32.335Z,85
2022-09-18T09:29:29.267Z,85
2022-09-18T09:31:34.043Z,85
2022-09-18T09:33:33.457Z,85
2022-09-18T09:35:35.523Z,84
2022-09-18T09:37:33.853Z,84
2022-09-18T09:39:32.530Z,84
2022-09-18T09:41:33.140Z,84
2022-09-18T09:43:32.265Z,84
2022-09-18T09:45:30.394Z,84
2022-09-18T09:47:32.281Z,84
2022-09-18T09:49:30.616Z,84
2022-09-18T09:51:33.534Z,84
2022-09-18T09:53:33.448Z,84
2022-09-18T09:55:32.471Z,85
2022-09-18T09:57:32.306Z,85
2022-09-18T09:59:29.333Z,85
2022-09-18T10:01:33.980Z,85
2022-09-18T10:03:33.427Z,84
2022-09-18T10:05:35.590Z,84
2022-09-18T10:07:32.462Z,84
2022-09-18T10:09:32.367Z,84
2022-09-18T10:11:31.044Z,84
2022-09-18T10:13:32.744Z,84
2022-09-18T10:15:29.513Z,84
2022-09-18T10:17:34.640Z,84
2022-09-18T10:19:35.743Z,84
2022-09-18T10:21:32.403Z,82
2022-09-18T10:23:35.356Z,83
2022-09-18T10:25:34.749Z,83
2022-09-18T10:27:35.508Z,83
2022-09-18T10:29:36.162Z,83
2022-09-18T10:31:32.361Z,83
2022-09-18T10:33:35.404Z,83
2022-09-18T10:35:32.330Z,83
2022-09-18T10:37:35.465Z,83
2022-09-18T10:39:32.333Z,84
2022-09-18T10:41:33.398Z,83
2022-09-18T10:43:32.325Z,84
2022-09-18T10:47:34.705Z,83
2022-09-18T10:49:32.366Z,83
2022-09-18T10:51:32.543Z,83
2022-09-18T10:53:32.742Z,82
2022-09-18T10:55:29.481Z,83
2022-09-18T10:57:32.325Z,83
2022-09-18T10:59:32.059Z,83
2022-09-18T11:01:32.444Z,83
2022-09-18T11:03:34.681Z,83
2022-09-18T11:05:34.447Z,82
2022-09-18T11:07:29.531Z,83
2022-09-18T11:09:32.365Z,82
2022-09-18T11:13:32.325Z,82
2022-09-18T11:15:34.869Z,81
2022-09-18T11:17:34.956Z,81
2022-09-18T11:19:34.847Z,81
2022-09-18T11:21:32.562Z,82
2022-09-18T11:23:34.672Z,81
2022-09-18T11:25:35.551Z,81
2022-09-18T11:27:34.296Z,81
2022-09-18T11:29:31.871Z,81
2022-09-18T11:31:34.878Z,81
2022-09-18T11:33:32.517Z,81
2022-09-18T11:35:33.494Z,81
2022-09-18T11:37:32.373Z,80
2022-09-18T11:39:35.205Z,80
2022-09-18T11:41:34.256Z,80
2022-09-18T11:43:32.314Z,80
2022-09-18T11:45:35.523Z,80
2022-09-18T11:47:32.313Z,80
2022-09-18T11:49:31.817Z,81
2022-09-18T11:51:33.543Z,80
2022-09-18T11:53:35.887Z,80
2022-09-18T11:55:35.643Z,80
2022-09-18T11:57:33.589Z,80
2022-09-18T11:59:32.590Z,80
2022-09-18T12:01:31.933Z,80
2022-09-18T12:03:33.165Z,79
2022-09-18T12:05:32.320Z,79
2022-09-18T12:07:35.683Z,79
2022-09-18T12:09:31.780Z,79
2022-09-18T12:11:30.807Z,79
2022-09-18T12:13:30.013Z,79
2022-09-18T12:15:31.261Z,79
2022-09-18T12:17:30.986Z,78
2022-09-18T12:19:31.890Z,79
2022-09-18T12:21:33.063Z,79
2022-09-18T12:23:32.629Z,79
2022-09-18T12:25:31.022Z,79
2022-09-18T12:27:41.876Z,79
2022-09-18T12:29:33.406Z,78
2022-09-18T12:31:31.101Z,77
2022-09-18T12:33:34.012Z,76
2022-09-18T12:35:32.462Z,76
2022-09-18T12:37:31.287Z,75
2022-09-18T12:39:31.394Z,76
2022-09-18T12:41:33.621Z,76
2022-09-18T12:43:31.628Z,76
2022-09-18T12:45:34.955Z,75
2022-09-18T12:47:31.627Z,73
2022-09-18T12:49:31.369Z,75
2022-09-18T12:51:33.532Z,75
2022-09-18T12:53:31.576Z,76
2022-09-18T12:55:32.784Z,73
2022-09-18T12:57:36.032Z,75
2022-09-18T12:59:32.755Z,74
2022-09-18T13:01:34.557Z,74
2022-09-18T13:03:31.950Z,72
2022-09-18T13:05:32.260Z,73
2022-09-18T13:07:28.787Z,72
2022-09-18T13:09:33.691Z,72
2022-09-18T13:11:31.490Z,72
2022-09-18T13:13:30.381Z,72
2022-09-18T13:15:35.001Z,72
2022-09-18T13:17:32.290Z,71
2022-09-18T13:19:33.559Z,73
2022-09-18T13:24:42.991Z,72
2022-09-18T13:38:18.417Z,73
2022-09-18T13:40:19.439Z,72
2022-09-18T13:42:21.535Z,72
2022-09-18T13:44:18.290Z,73
2022-09-18T13:46:19.889Z,71
2022-09-18T13:48:21.364Z,71
2022-09-18T13:50:19.301Z,70
2022-09-18T13:52:18.573Z,71
2022-09-18T13:54:21.300Z,71
2022-09-18T13:56:18.166Z,71
2022-09-18T13:58:17.986Z,71
2022-09-18T14:00:21.086Z,71
2022-09-18T14:02:18.646Z,72
2022-09-18T14:04:20.804Z,69
2022-09-18T14:08:18.437Z,70
2022-09-18T14:10:17.061Z,70
2022-09-18T14:12:20.980Z,70
2022-09-18T14:14:21.668Z,71
2022-09-18T14:16:20.436Z,71
2022-09-18T14:20:18.213Z,72
2022-09-18T14:22:17.137Z,70
2022-09-18T14:24:20.781Z,70
2022-09-18T14:26:21.397Z,71
2022-09-18T14:28:20.130Z,70
2022-09-18T14:32:19.491Z,70
2022-09-18T14:34:19.693Z,69
2022-09-18T14:36:21.426Z,70
2022-09-18T14:38:16.353Z,70
2022-09-18T14:40:18.753Z,71
2022-09-18T14:44:18.347Z,70
2022-09-18T14:46:19.312Z,70
2022-09-18T14:48:21.413Z,69
2022-09-18T14:50:19.892Z,70
2022-09-18T14:52:21.198Z,71
2022-09-18T14:54:20.813Z,71
2022-09-18T14:56:18.132Z,70
2022-09-18T14:58:21.351Z,71
2022-09-18T15:00:21.467Z,71
2022-09-18T15:02:18.990Z,71
2022-09-18T15:04:18.687Z,71
2022-09-18T15:06:21.271Z,71
2022-09-18T15:08:23.522Z,72
2022-09-18T15:10:19.402Z,72
2022-09-18T15:12:21.259Z,72
2022-09-18T15:14:19.289Z,72
2022-09-18T15:16:19.543Z,71
2022-09-18T15:20:19.015Z,72
2022-09-18T15:22:18.313Z,72
2022-09-18T15:26:23.027Z,72
2022-09-18T15:28:19.314Z,73
2022-09-18T15:32:23.197Z,73
2022-09-18T15:34:18.450Z,72
2022-09-18T15:38:21.539Z,72
2022-09-18T15:40:20.579Z,72
2022-09-18T15:42:20.938Z,72
2022-09-18T15:44:19.950Z,73
2022-09-18T15:46:19.432Z,73
2022-09-18T15:48:21.032Z,73
2022-09-18T15:50:23.167Z,72
2022-09-18T15:52:19.521Z,73
2022-09-18T15:54:21.132Z,73
2022-09-18T15:56:19.879Z,73
2022-09-18T15:58:21.503Z,74
2022-09-18T16:02:18.503Z,73
2022-09-18T16:04:21.265Z,74
2022-09-18T16:06:21.133Z,74
2022-09-18T16:08:20.762Z,74
2022-09-18T16:10:19.066Z,74
2022-09-18T16:12:21.205Z,74
2022-09-18T16:14:18.338Z,74
2022-09-18T16:16:21.717Z,74
2022-09-18T16:18:21.128Z,74
2022-09-18T16:20:18.010Z,74
2022-09-18T16:24:24.543Z,74
2022-09-18T16:26:21.211Z,74
2022-09-18T16:28:18.380Z,75
2022-09-18T16:30:21.575Z,76
2022-09-18T16:32:20.686Z,74
2022-09-18T16:34:18.670Z,74
2022-09-18T16:36:20.960Z,75
2022-09-18T16:38:18.384Z,75
2022-09-18T16:40:23.236Z,74
2022-09-18T16:44:18.350Z,74
2022-09-18T16:46:23.243Z,74
2022-09-18T16:48:20.677Z,74
2022-09-18T16:50:18.420Z,73
2022-09-18T16:52:19.412Z,74
2022-09-18T16:54:20.930Z,74
2022-09-18T16:56:18.244Z,74
2022-09-18T16:58:18.668Z,74
2022-09-18T17:02:19.158Z,74
2022-09-18T17:04:18.356Z,74
2022-09-18T17:08:17.091Z,75
2022-09-18T17:10:21.819Z,75
2022-09-18T17:12:21.330Z,76
2022-09-18T17:14:21.276Z,75
2022-09-18T17:16:30.535Z,76
2022-09-18T17:18:21.314Z,76
2022-09-18T17:20:20.448Z,76
2022-09-18T17:22:22.082Z,76
2022-09-18T17:26:24.702Z,76
2022-09-18T17:28:20.286Z,76
2022-09-18T17:32:21.661Z,77
2022-09-18T17:34:21.489Z,77
2022-09-18T17:36:21.354Z,77
2022-09-18T17:38:21.643Z,77
2022-09-18T17:40:20.066Z,77
2022-09-18T17:44:20.790Z,77
2022-09-18T17:46:21.665Z,77
2022-09-18T17:48:21.068Z,77
2022-09-18T17:50:21.568Z,77
2022-09-18T17:52:18.511Z,77
2022-09-18T17:54:21.198Z,77
2022-09-18T17:56:21.569Z,77
2022-09-18T17:58:19.372Z,77
2022-09-18T18:02:18.803Z,77
2022-09-18T18:04:20.042Z,77
2022-09-18T18:06:21.744Z,77
2022-09-18T18:08:21.550Z,77
2022-09-18T18:10:18.642Z,77
2022-09-18T18:12:21.326Z,77
2022-09-18T18:14:18.733Z,77
2022-09-18T18:16:19.939Z,77
2022-09-18T18:18:21.180Z,77
2022-09-18T18:20:18.392Z,77
2022-09-18T18:22:20.144Z,77
2022-09-18T18:26:21.865Z,77
2022-09-18T18:28:20.918Z,77
2022-09-18T18:30:20.174Z,77
2022-09-18T18:32:18.499Z,77
2022-09-18T18:34:20.766Z,77
2022-09-18T18:36:21.343Z,77
2022-09-18T18:38:17.950Z,77
2022-09-18T18:40:23.237Z,77
2022-09-18T18:42:21.367Z,78
2022-09-18T18:44:19.462Z,78
2022-09-18T18:46:19.847Z,78
2022-09-18T18:50:17.218Z,77
2022-09-18T18:52:19.152Z,78
2022-09-18T18:54:21.105Z,78
2022-09-18T18:56:20.027Z,77
2022-09-18T18:58:23.127Z,78
2022-09-18T19:02:18.468Z,78
2022-09-18T19:04:20.550Z,78
2022-09-18T19:06:21.311Z,78
2022-09-18T19:08:18.390Z,78
2022-09-18T19:10:21.027Z,78
2022-09-18T19:12:21.676Z,78
2022-09-18T19:14:18.448Z,78
2022-09-18T19:16:19.535Z,77
2022-09-18T19:18:21.226Z,77
2022-09-18T19:20:18.387Z,77
2022-09-18T19:22:18.461Z,77
2022-09-18T19:24:21.039Z,77
2022-09-18T19:26:18.436Z,78
2022-09-18T19:28:18.410Z,77
2022-09-18T19:30:21.119Z,77
2022-09-18T19:32:20.056Z,77
2022-09-18T19:34:18.684Z,77
2022-09-18T19:38:18.136Z,77
2022-09-18T19:40:18.409Z,77
2022-09-18T19:44:18.334Z,77
2022-09-18T19:46:18.546Z,78
2022-09-18T19:50:18.471Z,78
2022-09-18T19:54:21.708Z,79
2022-09-18T19:56:39.529Z,79
2022-09-18T19:58:18.474Z,79
2022-09-18T20:00:21.027Z,79
2022-09-18T20:02:24.795Z,79
2022-09-18T20:04:21.980Z,80
2022-09-18T20:06:21.337Z,80
2022-09-18T20:08:18.453Z,79
2022-09-18T20:10:15.576Z,80
2022-09-18T20:14:20.045Z,81
2022-09-18T20:16:21.441Z,80
2022-09-18T20:18:21.083Z,81
2022-09-18T20:20:18.403Z,81
2022-09-18T20:22:20.857Z,81
2022-09-18T20:24:22.250Z,81
2022-09-18T20:26:20.736Z,82
2022-09-18T20:28:18.171Z,81
2022-09-18T20:30:21.129Z,82
2022-09-18T20:32:18.479Z,82
2022-09-18T20:34:18.392Z,82
2022-09-18T20:36:24.767Z,81
2022-09-18T20:38:18.526Z,82
2022-09-18T20:40:22.129Z,83
2022-09-18T20:44:18.851Z,81
2022-09-18T20:46:18.666Z,82
2022-09-18T20:48:21.302Z,82
2022-09-18T20:50:19.998Z,83
2022-09-18T20:52:21.658Z,82
2022-09-18T20:56:18.601Z,83
2022-09-18T20:58:18.390Z,83
2022-09-18T21:00:21.470Z,83
2022-09-18T21:02:18.523Z,85
2022-09-18T21:04:27.492Z,86
2022-09-18T21:06:22.199Z,86
2022-09-18T21:08:18.604Z,86
2022-09-18T21:10:19.009Z,85
2022-09-18T21:12:21.605Z,85
2022-09-18T21:14:19.560Z,84
2022-09-18T21:16:20.229Z,84
2022-09-18T21:18:21.656Z,84
2022-09-18T21:20:18.657Z,84
2022-09-18T21:22:21.908Z,84
2022-09-18T21:24:21.495Z,84
2022-09-18T21:26:25.663Z,84
2022-09-18T21:28:18.488Z,85
2022-09-18T21:30:21.538Z,85
2022-09-18T21:32:21.692Z,85
2022-09-18T21:34:18.531Z,86
2022-09-18T21:38:19.618Z,86
2022-09-18T21:40:19.476Z,86
2022-09-18T21:42:21.656Z,85
2022-09-18T21:44:18.716Z,84
2022-09-18T21:46:20.147Z,85
2022-09-18T21:48:21.748Z,85
2022-09-18T21:50:20.165Z,85
2022-09-18T21:52:18.552Z,84
2022-09-18T21:54:21.115Z,85
2022-09-18T21:56:18.440Z,85
2022-09-18T21:58:19.065Z,85
2022-09-18T22:00:21.611Z,85
2022-09-18T22:02:21.629Z,86
2022-09-18T22:04:19.304Z,85
2022-09-18T22:08:18.429Z,86
2022-09-18T22:10:20.561Z,86
2022-09-18T22:12:20.785Z,86
2022-09-18T22:14:21.994Z,86
2022-09-18T22:16:19.766Z,87
2022-09-18T22:18:21.340Z,87
2022-09-18T22:20:18.522Z,87
2022-09-18T22:22:18.816Z,86
2022-09-18T22:24:21.336Z,87
2022-09-18T22:26:18.468Z,87
2022-09-18T22:28:20.319Z,87
2022-09-18T22:30:21.245Z,86
2022-09-18T22:32:21.780Z,87
2022-09-18T22:34:20.200Z,87
2022-09-18T22:36:21.367Z,87
2022-09-18T22:38:18.513Z,86
2022-09-18T22:40:21.011Z,86
2022-09-18T22:42:21.206Z,87
2022-09-18T22:44:18.185Z,87
2022-09-18T22:46:18.601Z,87
2022-09-18T22:50:20.003Z,87
2022-09-18T22:52:20.955Z,87
2022-09-18T22:56:18.579Z,87
2022-09-18T22:58:21.499Z,87
2022-09-18T23:02:18.598Z,87
2022-09-18T23:04:23.508Z,87
2022-09-18T23:08:19.623Z,87
2022-09-18T23:10:17.279Z,87
2022-09-18T23:14:18.997Z,87
2022-09-18T23:16:20.083Z,87
2022-09-18T23:18:19.096Z,87
2022-09-18T23:20:25.143Z,87
2022-09-18T23:22:18.232Z,87
2022-09-18T23:24:21.525Z,87
2022-09-18T23:26:17.050Z,87
2022-09-18T23:28:21.600Z,87
2022-09-18T23:32:18.631Z,87
2022-09-18T23:34:21.801Z,86
2022-09-18T23:38:18.738Z,87
2022-09-18T23:40:19.243Z,87
2022-09-18T23:44:18.638Z,87
2022-09-18T23:46:18.868Z,87
2022-09-18T23:48:21.114Z,88
2022-09-18T23:50:21.713Z,88
2022-09-18T23:52:19.640Z,87
2022-09-18T23:56:18.561Z,87
2022-09-18T23:58:18.561Z,87
